Terminal Aerodrome Forecast
Issued by NWS

Home | Current Version | Previous Version | Text Only | Print | Product List | Glossary On
Versions: 1 2 3 4 5 6 7 8 9 10 11 12 13 14 15 16 17
000
FTUS43 KTOP 252300
TAFFOE
TAF
KFOE 252320Z 2600/2624 17009KT P6SM OVC080
     FM260800 25012KT P6SM -SHRA SCT025 OVC050
     FM261000 30011KT P6SM SCT025 BKN050
     FM261400 31014G28KT P6SM BKN030=

USA.gov is the U.S. government's official web portal to all federal, state and local government web resources and services.